SCCY/GXQ METAR and TAF weather

Enter ICAO airport designator
Station Type Date Time Source
SCCY METAR 2020/12/05 05:00 UTC NOAA

SCCY 050500Z AUTO 01004KT 330V040 CAVOK 08/05 Q1022


Station Type Date Time Source
SCCY Decoded METAR 2020/12/05 05:00 UTC NOAA

Coyhaique, Chile (SCCY) 45-35S 072-07W
Dec 05, 2020 - 12:00 AM EST / 2020.12.05 0500 UTC
Wind: from the N (010 degrees) at 5 MPH (4 KT) (direction variable):0
Visibility: greater than 7 mile(s):0
Temperature: 46 F (8 C)
Dew Point: 41 F (5 C)
Relative Humidity: 81%
Pressure (altimeter): 30.18 in. Hg (1022 hPa)
ob: SCCY 050500Z AUTO 01004KT 330V040 CAVOK 08/05 Q1022
cycle: 5

Station Type Date Time Source
SCCY TAF 2020/12/04 12:00 UTC NOAA

TAF SCCY 041028Z 0412/0500 VRB02KT CAVOK TN06/0412Z TX21/0419Z
BECMG 0413/0415 26005KT

Example: see airport list